sensor_id;sensor_type;location;lat;lon;timestamp;temperature;humidity
22578;DHT22;11455;52.390;13.028;2023-06-14T00:00:31;22.20;99.90
22578;DHT22;11455;52.390;13.028;2023-06-14T00:02:56;22.20;99.90
22578;DHT22;11455;52.390;13.028;2023-06-14T00:05:23;22.20;99.90
22578;DHT22;11455;52.390;13.028;2023-06-14T00:07:49;22.30;99.90
22578;DHT22;11455;52.390;13.028;2023-06-14T00:10:18;22.10;99.90
22578;DHT22;11455;52.390;13.028;2023-06-14T00:12:44;22.10;99.90
22578;DHT22;11455;52.390;13.028;2023-06-14T00:15:10;22.10;99.90
22578;DHT22;11455;52.390;13.028;2023-06-14T00:17:35;22.20;99.90
22578;DHT22;11455;52.390;13.028;2023-06-14T00:20:04;22.20;99.90
22578;DHT22;11455;52.390;13.028;2023-06-14T00:22:33;22.20;99.90
22578;DHT22;11455;52.390;13.028;2023-06-14T00:24:59;22.00;99.90
22578;DHT22;11455;52.390;13.028;2023-06-14T00:27:24;21.80;99.90
22578;DHT22;11455;52.390;13.028;2023-06-14T00:29:51;21.90;99.90
22578;DHT22;11455;52.390;13.028;2023-06-14T00:32:19;21.80;99.90
22578;DHT22;11455;52.390;13.028;2023-06-14T00:34:51;21.80;99.90
22578;DHT22;11455;52.390;13.028;2023-06-14T00:37:17;21.70;99.90
22578;DHT22;11455;52.390;13.028;2023-06-14T00:39:43;21.70;99.90
22578;DHT22;11455;52.390;13.028;2023-06-14T00:42:08;21.60;99.90
22578;DHT22;11455;52.390;13.028;2023-06-14T00:44:34;21.70;99.90
22578;DHT22;11455;52.390;13.028;2023-06-14T00:47:01;21.80;99.90
22578;DHT22;11455;52.390;13.028;2023-06-14T00:49:27;21.90;99.90
22578;DHT22;11455;52.390;13.028;2023-06-14T00:51:54;21.90;99.90
22578;DHT22;11455;52.390;13.028;2023-06-14T00:54:20;21.90;99.90
22578;DHT22;11455;52.390;13.028;2023-06-14T00:56:46;22.00;99.90
22578;DHT22;11455;52.390;13.028;2023-06-14T00:59:12;22.00;99.90
22578;DHT22;11455;52.390;13.028;2023-06-14T01:01:37;22.00;99.90
22578;DHT22;11455;52.390;13.028;2023-06-14T01:04:04;22.00;99.90
22578;DHT22;11455;52.390;13.028;2023-06-14T01:06:36;22.00;99.90
22578;DHT22;11455;52.390;13.028;2023-06-14T01:09:15;21.90;99.90
22578;DHT22;11455;52.390;13.028;2023-06-14T01:11:48;21.80;99.90
22578;DHT22;11455;52.390;13.028;2023-06-14T01:14:16;21.70;99.90
22578;DHT22;11455;52.390;13.028;2023-06-14T01:16:42;21.60;99.90
22578;DHT22;11455;52.390;13.028;2023-06-14T01:19:11;21.60;99.90
22578;DHT22;11455;52.390;13.028;2023-06-14T01:21:39;21.60;99.90
22578;DHT22;11455;52.390;13.028;2023-06-14T01:24:08;21.70;99.90
22578;DHT22;11455;52.390;13.028;2023-06-14T01:26:34;21.70;99.90
22578;DHT22;11455;52.390;13.028;2023-06-14T01:29:00;21.60;99.90
22578;DHT22;11455;52.390;13.028;2023-06-14T01:31:26;21.70;99.90
22578;DHT22;11455;52.390;13.028;2023-06-14T01:33:52;21.70;99.90
22578;DHT22;11455;52.390;13.028;2023-06-14T01:36:19;21.60;99.90
22578;DHT22;11455;52.390;13.028;2023-06-14T01:38:45;21.60;99.90
22578;DHT22;11455;52.390;13.028;2023-06-14T01:41:15;21.50;99.90
22578;DHT22;11455;52.390;13.028;2023-06-14T01:43:43;21.60;99.90
22578;DHT22;11455;52.390;13.028;2023-06-14T01:46:10;21.50;99.90
22578;DHT22;11455;52.390;13.028;2023-06-14T01:48:36;21.60;99.90
22578;DHT22;11455;52.390;13.028;2023-06-14T01:51:02;21.60;99.90
22578;DHT22;11455;52.390;13.028;2023-06-14T01:53:28;21.70;99.90
22578;DHT22;11455;52.390;13.028;2023-06-14T01:55:54;21.80;99.90
22578;DHT22;11455;52.390;13.028;2023-06-14T01:58:20;21.80;99.90
22578;DHT22;11455;52.390;13.028;2023-06-14T02:00:46;21.70;99.90
22578;DHT22;11455;52.390;13.028;2023-06-14T02:03:14;21.70;99.90
22578;DHT22;11455;52.390;13.028;2023-06-14T02:05:43;21.70;99.90
22578;DHT22;11455;52.390;13.028;2023-06-14T02:08:08;21.70;99.90
22578;DHT22;11455;52.390;13.028;2023-06-14T02:10:34;21.80;99.90
22578;DHT22;11455;52.390;13.028;2023-06-14T02:13:00;21.80;99.90
22578;DHT22;11455;52.390;13.028;2023-06-14T02:15:26;21.90;99.90
22578;DHT22;11455;52.390;13.028;2023-06-14T02:17:53;21.80;99.90
22578;DHT22;11455;52.390;13.028;2023-06-14T02:20:19;21.80;99.90
22578;DHT22;11455;52.390;13.028;2023-06-14T02:22:45;21.70;99.90
22578;DHT22;11455;52.390;13.028;2023-06-14T02:25:10;21.70;99.90
22578;DHT22;11455;52.390;13.028;2023-06-14T02:27:36;21.70;99.90
22578;DHT22;11455;52.390;13.028;2023-06-14T02:30:03;21.70;99.90
22578;DHT22;11455;52.390;13.028;2023-06-14T02:32:31;21.70;1.00
22578;DHT22;11455;52.390;13.028;2023-06-14T02:34:59;21.50;1.00
22578;DHT22;11455;52.390;13.028;2023-06-14T02:37:27;21.50;1.00
22578;DHT22;11455;52.390;13.028;2023-06-14T02:39:53;21.50;1.00
22578;DHT22;11455;52.390;13.028;2023-06-14T02:42:18;21.50;1.00
22578;DHT22;11455;52.390;13.028;2023-06-14T02:44:44;21.50;1.00
22578;DHT22;11455;52.390;13.028;2023-06-14T02:47:11;21.60;1.00
22578;DHT22;11455;52.390;13.028;2023-06-14T02:49:37;21.60;1.00
22578;DHT22;11455;52.390;13.028;2023-06-14T02:52:03;21.60;1.00
22578;DHT22;11455;52.390;13.028;2023-06-14T02:54:29;21.60;1.00
22578;DHT22;11455;52.390;13.028;2023-06-14T02:56:54;21.70;1.00
22578;DHT22;11455;52.390;13.028;2023-06-14T02:59:21;21.70;1.00
22578;DHT22;11455;52.390;13.028;2023-06-14T03:01:51;21.60;1.00
22578;DHT22;11455;52.390;13.028;2023-06-14T03:04:17;21.40;1.00
22578;DHT22;11455;52.390;13.028;2023-06-14T03:06:42;21.40;1.00
22578;DHT22;11455;52.390;13.028;2023-06-14T03:09:10;21.50;1.00
22578;DHT22;11455;52.390;13.028;2023-06-14T03:11:38;21.60;1.00
22578;DHT22;11455;52.390;13.028;2023-06-14T03:14:04;21.50;1.00
22578;DHT22;11455;52.390;13.028;2023-06-14T03:16:30;21.60;1.00
22578;DHT22;11455;52.390;13.028;2023-06-14T03:18:58;21.60;1.00
22578;DHT22;11455;52.390;13.028;2023-06-14T03:21:26;21.60;1.00
22578;DHT22;11455;52.390;13.028;2023-06-14T03:23:54;21.50;1.00
22578;DHT22;11455;52.390;13.028;2023-06-14T03:26:20;21.50;1.00
22578;DHT22;11455;52.390;13.028;2023-06-14T03:28:50;21.60;1.00
22578;DHT22;11455;52.390;13.028;2023-06-14T03:31:16;21.60;1.00
22578;DHT22;11455;52.390;13.028;2023-06-14T03:33:42;21.60;1.00
22578;DHT22;11455;52.390;13.028;2023-06-14T03:36:09;21.60;1.00
22578;DHT22;11455;52.390;13.028;2023-06-14T03:38:37;21.60;1.00
22578;DHT22;11455;52.390;13.028;2023-06-14T03:41:04;21.50;1.00
22578;DHT22;11455;52.390;13.028;2023-06-14T03:43:34;21.60;1.00
22578;DHT22;11455;52.390;13.028;2023-06-14T03:46:00;21.60;1.00
22578;DHT22;11455;52.390;13.028;2023-06-14T03:48:28;21.60;1.00
22578;DHT22;11455;52.390;13.028;2023-06-14T03:50:53;21.70;1.00
22578;DHT22;11455;52.390;13.028;2023-06-14T03:53:20;21.60;1.00
22578;DHT22;11455;52.390;13.028;2023-06-14T03:55:51;21.60;1.00
22578;DHT22;11455;52.390;13.028;2023-06-14T03:58:19;21.50;1.00
22578;DHT22;11455;52.390;13.028;2023-06-14T04:00:45;21.40;1.00
22578;DHT22;11455;52.390;13.028;2023-06-14T04:03:11;21.30;1.00
22578;DHT22;11455;52.390;13.028;2023-06-14T04:05:39;21.30;1.00
22578;DHT22;11455;52.390;13.028;2023-06-14T04:08:10;21.30;1.00
22578;DHT22;11455;52.390;13.028;2023-06-14T04:10:40;21.30;1.00
22578;DHT22;11455;52.390;13.028;2023-06-14T04:13:06;21.50;1.00
22578;DHT22;11455;52.390;13.028;2023-06-14T04:15:32;21.50;1.00
22578;DHT22;11455;52.390;13.028;2023-06-14T04:17:59;21.40;1.00
22578;DHT22;11455;52.390;13.028;2023-06-14T04:20:25;21.50;1.00
22578;DHT22;11455;52.390;13.028;2023-06-14T04:22:52;21.50;1.00
22578;DHT22;11455;52.390;13.028;2023-06-14T04:25:18;21.50;1.00
22578;DHT22;11455;52.390;13.028;2023-06-14T04:27:44;21.30;1.00
22578;DHT22;11455;52.390;13.028;2023-06-14T04:30:10;20.90;1.00
22578;DHT22;11455;52.390;13.028;2023-06-14T04:32:41;20.50;1.00
22578;DHT22;11455;52.390;13.028;2023-06-14T04:35:09;20.30;1.00
22578;DHT22;11455;52.390;13.028;2023-06-14T04:37:38;20.20;1.00
22578;DHT22;11455;52.390;13.028;2023-06-14T04:40:07;20.20;1.00
22578;DHT22;11455;52.390;13.028;2023-06-14T04:42:33;20.40;1.00
22578;DHT22;11455;52.390;13.028;2023-06-14T04:45:03;20.70;1.00
22578;DHT22;11455;52.390;13.028;2023-06-14T04:47:29;20.90;1.00
22578;DHT22;11455;52.390;13.028;2023-06-14T04:49:56;21.10;1.00
22578;DHT22;11455;52.390;13.028;2023-06-14T04:52:23;21.20;1.00
22578;DHT22;11455;52.390;13.028;2023-06-14T04:54:56;21.20;1.00
22578;DHT22;11455;52.390;13.028;2023-06-14T04:57:26;21.20;1.00
22578;DHT22;11455;52.390;13.028;2023-06-14T04:59:55;21.30;1.00
22578;DHT22;11455;52.390;13.028;2023-06-14T05:02:24;21.30;1.00
22578;DHT22;11455;52.390;13.028;2023-06-14T05:04:52;21.30;1.00
22578;DHT22;11455;52.390;13.028;2023-06-14T05:07:18;21.30;1.00
22578;DHT22;11455;52.390;13.028;2023-06-14T05:09:47;21.40;1.00
22578;DHT22;11455;52.390;13.028;2023-06-14T05:12:13;21.50;1.00
22578;DHT22;11455;52.390;13.028;2023-06-14T05:14:38;21.50;1.00
22578;DHT22;11455;52.390;13.028;2023-06-14T05:17:06;21.50;1.00
22578;DHT22;11455;52.390;13.028;2023-06-14T05:19:32;21.40;1.00
22578;DHT22;11455;52.390;13.028;2023-06-14T05:21:58;21.10;1.00
22578;DHT22;11455;52.390;13.028;2023-06-14T05:24:23;20.80;1.00
22578;DHT22;11455;52.390;13.028;2023-06-14T05:26:49;20.60;1.00
22578;DHT22;11455;52.390;13.028;2023-06-14T05:29:14;20.40;1.00
22578;DHT22;11455;52.390;13.028;2023-06-14T05:31:40;20.40;1.00
22578;DHT22;11455;52.390;13.028;2023-06-14T05:34:06;20.30;1.00
22578;DHT22;11455;52.390;13.028;2023-06-14T05:36:31;20.20;1.00
22578;DHT22;11455;52.390;13.028;2023-06-14T05:38:57;20.10;1.00
22578;DHT22;11455;52.390;13.028;2023-06-14T05:41:28;20.20;1.00
22578;DHT22;11455;52.390;13.028;2023-06-14T05:43:54;20.20;1.00
22578;DHT22;11455;52.390;13.028;2023-06-14T05:46:20;20.20;1.00
22578;DHT22;11455;52.390;13.028;2023-06-14T05:48:50;20.20;1.00
22578;DHT22;11455;52.390;13.028;2023-06-14T05:51:15;20.10;1.00
22578;DHT22;11455;52.390;13.028;2023-06-14T05:53:50;20.20;1.00
22578;DHT22;11455;52.390;13.028;2023-06-14T05:56:18;20.20;1.00
22578;DHT22;11455;52.390;13.028;2023-06-14T05:58:44;20.20;1.00
22578;DHT22;11455;52.390;13.028;2023-06-14T06:01:09;20.20;1.00
22578;DHT22;11455;52.390;13.028;2023-06-14T06:03:35;20.30;1.00
22578;DHT22;11455;52.390;13.028;2023-06-14T06:06:01;20.30;1.00
22578;DHT22;11455;52.390;13.028;2023-06-14T06:08:28;20.30;1.00
22578;DHT22;11455;52.390;13.028;2023-06-14T06:10:54;20.30;1.00
22578;DHT22;11455;52.390;13.028;2023-06-14T06:13:19;20.30;1.00
22578;DHT22;11455;52.390;13.028;2023-06-14T06:15:47;20.30;1.00
22578;DHT22;11455;52.390;13.028;2023-06-14T06:18:13;20.30;1.00
22578;DHT22;11455;52.390;13.028;2023-06-14T06:20:39;20.20;1.00
22578;DHT22;11455;52.390;13.028;2023-06-14T06:23:04;20.10;1.00
22578;DHT22;11455;52.390;13.028;2023-06-14T06:25:30;20.10;1.00
22578;DHT22;11455;52.390;13.028;2023-06-14T06:27:57;20.30;1.00
22578;DHT22;11455;52.390;13.028;2023-06-14T06:30:23;20.20;1.00
22578;DHT22;11455;52.390;13.028;2023-06-14T06:32:49;20.10;1.00
22578;DHT22;11455;52.390;13.028;2023-06-14T06:35:16;20.00;1.00
22578;DHT22;11455;52.390;13.028;2023-06-14T06:37:42;19.90;1.00
22578;DHT22;11455;52.390;13.028;2023-06-14T06:40:08;19.80;1.00
22578;DHT22;11455;52.390;13.028;2023-06-14T06:42:34;19.70;1.00
22578;DHT22;11455;52.390;13.028;2023-06-14T06:45:04;19.60;1.00
22578;DHT22;11455;52.390;13.028;2023-06-14T06:47:30;19.50;1.00
22578;DHT22;11455;52.390;13.028;2023-06-14T06:49:56;19.40;1.00
22578;DHT22;11455;52.390;13.028;2023-06-14T06:52:22;19.30;1.00
22578;DHT22;11455;52.390;13.028;2023-06-14T06:54:48;19.30;1.00
22578;DHT22;11455;52.390;13.028;2023-06-14T06:57:16;19.20;1.00
22578;DHT22;11455;52.390;13.028;2023-06-14T06:59:42;19.10;1.00
22578;DHT22;11455;52.390;13.028;2023-06-14T07:02:08;19.10;1.00
22578;DHT22;11455;52.390;13.028;2023-06-14T07:04:33;19.10;1.00
22578;DHT22;11455;52.390;13.028;2023-06-14T07:07:01;19.00;1.00
22578;DHT22;11455;52.390;13.028;2023-06-14T07:09:27;19.00;1.00
22578;DHT22;11455;52.390;13.028;2023-06-14T07:11:52;19.10;1.00
22578;DHT22;11455;52.390;13.028;2023-06-14T07:14:18;19.10;1.00
22578;DHT22;11455;52.390;13.028;2023-06-14T07:16:44;19.10;1.00
22578;DHT22;11455;52.390;13.028;2023-06-14T07:19:10;19.20;1.00
22578;DHT22;11455;52.390;13.028;2023-06-14T07:21:36;19.30;1.00
22578;DHT22;11455;52.390;13.028;2023-06-14T07:24:07;19.30;1.00
22578;DHT22;11455;52.390;13.028;2023-06-14T07:26:33;19.40;1.00
22578;DHT22;11455;52.390;13.028;2023-06-14T07:28:59;19.60;1.00
22578;DHT22;11455;52.390;13.028;2023-06-14T07:31:24;19.80;1.00
22578;DHT22;11455;52.390;13.028;2023-06-14T07:33:50;19.80;1.00
22578;DHT22;11455;52.390;13.028;2023-06-14T07:36:16;19.70;1.00
22578;DHT22;11455;52.390;13.028;2023-06-14T07:38:43;19.60;1.00
22578;DHT22;11455;52.390;13.028;2023-06-14T07:41:09;19.70;1.00
22578;DHT22;11455;52.390;13.028;2023-06-14T07:43:35;19.90;1.00
22578;DHT22;11455;52.390;13.028;2023-06-14T07:46:00;19.90;1.00
22578;DHT22;11455;52.390;13.028;2023-06-14T07:48:26;19.80;1.00
22578;DHT22;11455;52.390;13.028;2023-06-14T07:50:52;19.80;1.00
22578;DHT22;11455;52.390;13.028;2023-06-14T07:53:21;19.80;1.00
22578;DHT22;11455;52.390;13.028;2023-06-14T07:55:47;19.90;1.00
22578;DHT22;11455;52.390;13.028;2023-06-14T07:58:14;19.90;1.00
22578;DHT22;11455;52.390;13.028;2023-06-14T08:00:39;20.00;1.00
22578;DHT22;11455;52.390;13.028;2023-06-14T08:03:05;20.20;1.00
22578;DHT22;11455;52.390;13.028;2023-06-14T08:05:31;20.30;1.00
22578;DHT22;11455;52.390;13.028;2023-06-14T08:07:56;20.40;1.00
22578;DHT22;11455;52.390;13.028;2023-06-14T08:10:24;20.40;1.00
22578;DHT22;11455;52.390;13.028;2023-06-14T08:12:50;20.40;1.00
22578;DHT22;11455;52.390;13.028;2023-06-14T08:15:16;20.30;1.00
22578;DHT22;11455;52.390;13.028;2023-06-14T08:17:42;20.20;1.00
22578;DHT22;11455;52.390;13.028;2023-06-14T08:20:08;20.20;1.00
22578;DHT22;11455;52.390;13.028;2023-06-14T08:22:34;20.40;1.00
22578;DHT22;11455;52.390;13.028;2023-06-14T08:25:01;20.50;1.00
22578;DHT22;11455;52.390;13.028;2023-06-14T08:27:27;20.60;1.00
22578;DHT22;11455;52.390;13.028;2023-06-14T08:29:53;20.60;1.00
22578;DHT22;11455;52.390;13.028;2023-06-14T08:32:19;20.70;1.00
22578;DHT22;11455;52.390;13.028;2023-06-14T08:34:45;20.60;1.00
22578;DHT22;11455;52.390;13.028;2023-06-14T08:37:10;20.70;1.00
22578;DHT22;11455;52.390;13.028;2023-06-14T08:39:36;20.70;1.00
22578;DHT22;11455;52.390;13.028;2023-06-14T08:42:04;20.70;1.00
22578;DHT22;11455;52.390;13.028;2023-06-14T08:44:32;20.80;1.00
22578;DHT22;11455;52.390;13.028;2023-06-14T08:46:58;20.90;1.00
22578;DHT22;11455;52.390;13.028;2023-06-14T08:49:28;20.90;1.00
22578;DHT22;11455;52.390;13.028;2023-06-14T08:51:58;21.00;1.00
22578;DHT22;11455;52.390;13.028;2023-06-14T08:54:27;21.10;1.00
22578;DHT22;11455;52.390;13.028;2023-06-14T08:56:55;21.10;1.00
22578;DHT22;11455;52.390;13.028;2023-06-14T08:59:25;21.20;1.00
22578;DHT22;11455;52.390;13.028;2023-06-14T09:01:52;21.20;1.00
22578;DHT22;11455;52.390;13.028;2023-06-14T09:04:18;21.10;1.00
22578;DHT22;11455;52.390;13.028;2023-06-14T09:06:45;21.10;1.00
22578;DHT22;11455;52.390;13.028;2023-06-14T09:09:11;21.20;1.00
22578;DHT22;11455;52.390;13.028;2023-06-14T09:11:36;21.10;1.00
22578;DHT22;11455;52.390;13.028;2023-06-14T09:14:02;21.10;1.00
22578;DHT22;11455;52.390;13.028;2023-06-14T09:16:28;21.30;1.00
22578;DHT22;11455;52.390;13.028;2023-06-14T09:18:53;21.40;1.00
22578;DHT22;11455;52.390;13.028;2023-06-14T09:21:19;21.40;1.00
22578;DHT22;11455;52.390;13.028;2023-06-14T09:23:47;21.50;1.00
22578;DHT22;11455;52.390;13.028;2023-06-14T09:26:16;21.50;1.00
22578;DHT22;11455;52.390;13.028;2023-06-14T09:28:45;21.60;1.00
22578;DHT22;11455;52.390;13.028;2023-06-14T09:31:12;21.70;1.00
22578;DHT22;11455;52.390;13.028;2023-06-14T09:33:38;21.80;1.00
22578;DHT22;11455;52.390;13.028;2023-06-14T09:36:04;21.90;1.00
22578;DHT22;11455;52.390;13.028;2023-06-14T09:38:30;21.90;1.00
22578;DHT22;11455;52.390;13.028;2023-06-14T09:40:57;22.00;1.00
22578;DHT22;11455;52.390;13.028;2023-06-14T09:43:23;22.10;1.00
22578;DHT22;11455;52.390;13.028;2023-06-14T09:45:49;22.10;1.00
22578;DHT22;11455;52.390;13.028;2023-06-14T09:48:15;22.00;1.00
22578;DHT22;11455;52.390;13.028;2023-06-14T09:50:44;21.70;1.00
22578;DHT22;11455;52.390;13.028;2023-06-14T09:53:11;21.70;1.00
22578;DHT22;11455;52.390;13.028;2023-06-14T09:55:37;21.70;1.00
22578;DHT22;11455;52.390;13.028;2023-06-14T09:58:04;21.70;1.00
22578;DHT22;11455;52.390;13.028;2023-06-14T10:00:31;21.80;1.00
22578;DHT22;11455;52.390;13.028;2023-06-14T10:03:00;21.80;1.00
22578;DHT22;11455;52.390;13.028;2023-06-14T10:05:28;22.00;1.00
22578;DHT22;11455;52.390;13.028;2023-06-14T10:08:04;22.10;1.00
22578;DHT22;11455;52.390;13.028;2023-06-14T10:10:29;22.20;1.00
22578;DHT22;11455;52.390;13.028;2023-06-14T10:12:56;22.00;1.00
22578;DHT22;11455;52.390;13.028;2023-06-14T10:15:32;22.10;1.00
22578;DHT22;11455;52.390;13.028;2023-06-14T10:18:38;22.20;1.00
22578;DHT22;11455;52.390;13.028;2023-06-14T10:21:02;22.20;1.00
22578;DHT22;11455;52.390;13.028;2023-06-14T10:23:35;22.40;1.00
22578;DHT22;11455;52.390;13.028;2023-06-14T10:26:02;22.40;1.00
22578;DHT22;11455;52.390;13.028;2023-06-14T10:28:28;22.50;1.00
22578;DHT22;11455;52.390;13.028;2023-06-14T10:33:26;22.80;1.00
22578;DHT22;11455;52.390;13.028;2023-06-14T10:36:06;22.70;1.00
22578;DHT22;11455;52.390;13.028;2023-06-14T10:38:32;22.70;1.00
22578;DHT22;11455;52.390;13.028;2023-06-14T10:40:58;22.60;1.00
22578;DHT22;11455;52.390;13.028;2023-06-14T10:43:26;22.50;1.00
22578;DHT22;11455;52.390;13.028;2023-06-14T10:46:14;22.60;1.00
22578;DHT22;11455;52.390;13.028;2023-06-14T10:48:41;22.70;1.00
22578;DHT22;11455;52.390;13.028;2023-06-14T10:51:22;22.60;1.00
22578;DHT22;11455;52.390;13.028;2023-06-14T10:53:50;22.70;1.00
22578;DHT22;11455;52.390;13.028;2023-06-14T10:56:23;22.70;1.00
22578;DHT22;11455;52.390;13.028;2023-06-14T10:58:49;22.50;1.00
22578;DHT22;11455;52.390;13.028;2023-06-14T11:01:16;22.50;1.00
22578;DHT22;11455;52.390;13.028;2023-06-14T11:03:50;22.60;1.00
22578;DHT22;11455;52.390;13.028;2023-06-14T11:06:17;22.60;1.00
22578;DHT22;11455;52.390;13.028;2023-06-14T11:11:12;22.70;1.00
22578;DHT22;11455;52.390;13.028;2023-06-14T11:13:38;22.70;1.00
22578;DHT22;11455;52.390;13.028;2023-06-14T11:16:12;22.70;1.00
22578;DHT22;11455;52.390;13.028;2023-06-14T11:18:38;22.70;1.00
22578;DHT22;11455;52.390;13.028;2023-06-14T11:21:03;22.60;1.00
22578;DHT22;11455;52.390;13.028;2023-06-14T11:23:29;22.60;1.00
22578;DHT22;11455;52.390;13.028;2023-06-14T11:25:54;22.60;1.00
22578;DHT22;11455;52.390;13.028;2023-06-14T11:28:20;22.50;1.00
22578;DHT22;11455;52.390;13.028;2023-06-14T11:30:49;22.50;1.00
22578;DHT22;11455;52.390;13.028;2023-06-14T11:33:24;22.50;1.00
22578;DHT22;11455;52.390;13.028;2023-06-14T11:35:50;22.60;1.00
22578;DHT22;11455;52.390;13.028;2023-06-14T11:38:16;22.70;1.00
22578;DHT22;11455;52.390;13.028;2023-06-14T11:40:42;22.80;1.00
22578;DHT22;11455;52.390;13.028;2023-06-14T11:43:07;23.00;1.00
22578;DHT22;11455;52.390;13.028;2023-06-14T11:45:33;23.10;1.00
22578;DHT22;11455;52.390;13.028;2023-06-14T11:47:59;23.30;1.00
22578;DHT22;11455;52.390;13.028;2023-06-14T11:50:25;23.40;1.00
22578;DHT22;11455;52.390;13.028;2023-06-14T11:52:55;23.50;99.90
22578;DHT22;11455;52.390;13.028;2023-06-14T11:55:24;23.30;99.90
22578;DHT22;11455;52.390;13.028;2023-06-14T11:57:50;23.30;99.90
22578;DHT22;11455;52.390;13.028;2023-06-14T12:00:16;23.30;99.90
22578;DHT22;11455;52.390;13.028;2023-06-14T12:02:43;23.20;99.90
22578;DHT22;11455;52.390;13.028;2023-06-14T12:05:08;23.40;99.90
22578;DHT22;11455;52.390;13.028;2023-06-14T12:07:38;23.60;99.90
22578;DHT22;11455;52.390;13.028;2023-06-14T12:10:06;23.70;99.90
22578;DHT22;11455;52.390;13.028;2023-06-14T12:12:36;23.80;99.90
22578;DHT22;11455;52.390;13.028;2023-06-14T12:15:03;23.80;99.90
22578;DHT22;11455;52.390;13.028;2023-06-14T12:17:31;23.90;99.90
22578;DHT22;11455;52.390;13.028;2023-06-14T12:19:57;24.10;99.90
22578;DHT22;11455;52.390;13.028;2023-06-14T12:22:23;24.20;99.90
22578;DHT22;11455;52.390;13.028;2023-06-14T12:24:48;24.20;99.90
22578;DHT22;11455;52.390;13.028;2023-06-14T12:27:14;24.20;99.90
22578;DHT22;11455;52.390;13.028;2023-06-14T12:29:45;24.30;99.90
22578;DHT22;11455;52.390;13.028;2023-06-14T12:32:13;24.30;99.90
22578;DHT22;11455;52.390;13.028;2023-06-14T12:34:38;24.10;99.90
22578;DHT22;11455;52.390;13.028;2023-06-14T12:37:04;24.00;99.90
22578;DHT22;11455;52.390;13.028;2023-06-14T12:39:30;24.00;99.90
22578;DHT22;11455;52.390;13.028;2023-06-14T12:41:59;24.10;99.90
22578;DHT22;11455;52.390;13.028;2023-06-14T12:44:24;24.10;99.90
22578;DHT22;11455;52.390;13.028;2023-06-14T12:46:53;24.20;99.90
22578;DHT22;11455;52.390;13.028;2023-06-14T12:49:19;24.30;99.90
22578;DHT22;11455;52.390;13.028;2023-06-14T12:51:46;24.30;99.90
22578;DHT22;11455;52.390;13.028;2023-06-14T12:54:11;24.30;99.90
22578;DHT22;11455;52.390;13.028;2023-06-14T12:56:37;24.40;99.90
22578;DHT22;11455;52.390;13.028;2023-06-14T12:59:03;24.50;99.90
22578;DHT22;11455;52.390;13.028;2023-06-14T13:01:29;24.60;99.90
22578;DHT22;11455;52.390;13.028;2023-06-14T13:03:57;24.60;99.90
22578;DHT22;11455;52.390;13.028;2023-06-14T13:06:22;24.80;99.90
22578;DHT22;11455;52.390;13.028;2023-06-14T13:08:53;24.90;99.90
22578;DHT22;11455;52.390;13.028;2023-06-14T13:11:20;25.20;99.90
22578;DHT22;11455;52.390;13.028;2023-06-14T13:13:45;25.40;99.90
22578;DHT22;11455;52.390;13.028;2023-06-14T13:16:11;25.50;99.90
22578;DHT22;11455;52.390;13.028;2023-06-14T13:18:38;25.60;99.90
22578;DHT22;11455;52.390;13.028;2023-06-14T13:21:06;25.60;99.90
22578;DHT22;11455;52.390;13.028;2023-06-14T13:23:32;25.60;99.90
22578;DHT22;11455;52.390;13.028;2023-06-14T13:26:03;25.80;99.90
22578;DHT22;11455;52.390;13.028;2023-06-14T13:28:29;25.90;99.90
22578;DHT22;11455;52.390;13.028;2023-06-14T13:30:56;26.10;99.90
22578;DHT22;11455;52.390;13.028;2023-06-14T13:33:22;26.10;99.90
22578;DHT22;11455;52.390;13.028;2023-06-14T13:35:49;26.00;99.90
22578;DHT22;11455;52.390;13.028;2023-06-14T13:38:18;25.90;99.90
22578;DHT22;11455;52.390;13.028;2023-06-14T13:40:43;25.90;99.90
22578;DHT22;11455;52.390;13.028;2023-06-14T13:43:09;25.80;99.90
22578;DHT22;11455;52.390;13.028;2023-06-14T13:45:35;25.80;99.90
22578;DHT22;11455;52.390;13.028;2023-06-14T13:48:01;25.90;99.90
22578;DHT22;11455;52.390;13.028;2023-06-14T13:50:27;25.90;99.90
22578;DHT22;11455;52.390;13.028;2023-06-14T13:52:53;26.00;99.90
22578;DHT22;11455;52.390;13.028;2023-06-14T13:55:18;26.30;99.90
22578;DHT22;11455;52.390;13.028;2023-06-14T13:57:44;26.30;99.90
22578;DHT22;11455;52.390;13.028;2023-06-14T14:00:10;26.10;99.90
22578;DHT22;11455;52.390;13.028;2023-06-14T14:02:40;25.70;99.90
22578;DHT22;11455;52.390;13.028;2023-06-14T14:05:06;25.50;99.90
22578;DHT22;11455;52.390;13.028;2023-06-14T14:07:32;25.60;99.90
22578;DHT22;11455;52.390;13.028;2023-06-14T14:09:57;25.90;99.90
22578;DHT22;11455;52.390;13.028;2023-06-14T14:12:23;26.10;99.90
22578;DHT22;11455;52.390;13.028;2023-06-14T14:14:49;26.40;99.90
22578;DHT22;11455;52.390;13.028;2023-06-14T14:17:15;26.50;99.90
22578;DHT22;11455;52.390;13.028;2023-06-14T14:19:41;26.30;99.90
22578;DHT22;11455;52.390;13.028;2023-06-14T14:22:07;26.20;99.90
22578;DHT22;11455;52.390;13.028;2023-06-14T14:24:32;26.30;99.90
22578;DHT22;11455;52.390;13.028;2023-06-14T14:26:58;26.40;99.90
22578;DHT22;11455;52.390;13.028;2023-06-14T14:29:25;26.50;99.90
22578;DHT22;11455;52.390;13.028;2023-06-14T14:31:57;26.70;99.90
22578;DHT22;11455;52.390;13.028;2023-06-14T14:34:25;26.80;99.90
22578;DHT22;11455;52.390;13.028;2023-06-14T14:36:50;27.00;99.90
22578;DHT22;11455;52.390;13.028;2023-06-14T14:39:16;27.00;99.90
22578;DHT22;11455;52.390;13.028;2023-06-14T14:41:42;27.00;99.90
22578;DHT22;11455;52.390;13.028;2023-06-14T14:44:07;26.70;99.90
22578;DHT22;11455;52.390;13.028;2023-06-14T14:46:33;26.50;99.90
22578;DHT22;11455;52.390;13.028;2023-06-14T14:48:59;26.30;99.90
22578;DHT22;11455;52.390;13.028;2023-06-14T14:51:28;26.10;99.90
22578;DHT22;11455;52.390;13.028;2023-06-14T14:53:54;26.00;99.90
22578;DHT22;11455;52.390;13.028;2023-06-14T14:56:19;25.90;99.90
22578;DHT22;11455;52.390;13.028;2023-06-14T14:58:47;25.70;99.90
22578;DHT22;11455;52.390;13.028;2023-06-14T15:01:14;25.60;99.90
22578;DHT22;11455;52.390;13.028;2023-06-14T15:03:40;25.40;99.90
22578;DHT22;11455;52.390;13.028;2023-06-14T15:06:05;25.00;99.90
22578;DHT22;11455;52.390;13.028;2023-06-14T15:08:31;24.80;99.90
22578;DHT22;11455;52.390;13.028;2023-06-14T15:10:57;24.60;99.90
22578;DHT22;11455;52.390;13.028;2023-06-14T15:13:26;24.30;99.90
22578;DHT22;11455;52.390;13.028;2023-06-14T15:15:51;24.30;99.90
22578;DHT22;11455;52.390;13.028;2023-06-14T15:18:18;24.20;99.90
22578;DHT22;11455;52.390;13.028;2023-06-14T15:20:48;24.20;99.90
22578;DHT22;11455;52.390;13.028;2023-06-14T15:23:14;24.10;99.90
22578;DHT22;11455;52.390;13.028;2023-06-14T15:25:45;24.00;99.90
22578;DHT22;11455;52.390;13.028;2023-06-14T15:28:10;23.90;99.90